Latest Weather Observations for Inner Beacon

IDQ60801

Issued at 2:52 pm EST Thursday 1 October 2020 (issued every 10 minutes, with the page automatically refreshed every 10 minutes)

About weather observations | Map of weather stations | Latest weather observations for QLD | Other Formats
Station Details ID: 040926 Name: INNER RECIPROCAL MARKER Lat: -27.26 Lon: 153.24 Height: 10.0 m
Data from the previous 72 hours. | See also: Recent months at Inner Beacon
Date/Time
EST
Temp
°C
App
Temp
°C
Dew
Point
°C
Rel
Hum
%
Delta-T
°C
Wind Press
QNH
hPa
Press
MSL
hPa
Rain since
9am
mm
Dir  Spd
km/h
Gust
km/h
Spd
kts
Gust
kts
01/02:30pm - - - - - NNE 35 43 19 23 - - -
01/02:00pm - - - - - NNE 33 39 18 21 - - -
01/01:30pm - - - - - NNE 33 41 18 22 - - -
01/01:00pm - - - - - NNE 33 39 18 21 - - -
01/12:30pm - - - - - NNE 30 35 16 19 - - -
01/12:00pm - - - - - NNE 26 32 14 17 - - -
01/11:30am - - - - - NNE 24 28 13 15 - - -
01/11:00am - - - - - NNE 11 20 6 11 - - -
01/10:30am - - - - - ENE 7 11 4 6 - - -
01/10:00am - - - - - NNE 9 11 5 6 - - -
01/09:30am - - - - - N 6 9 3 5 - - -
01/09:00am - - - - - CALM 0 4 0 2 - - -
01/08:30am - - - - - W 4 6 2 3 - - -
01/08:00am - - - - - WNW 6 7 3 4 - - -
01/07:30am - - - - - WNW 6 7 3 4 - - -
01/07:00am - - - - - WNW 6 9 3 5 - - -
01/06:30am - - - - - WNW 11 13 6 7 - - -
01/06:00am - - - - - WNW 9 13 5 7 - - -
01/05:30am - - - - - WNW 9 11 5 6 - - -
01/05:00am - - - - - NW 13 15 7 8 - - -
01/04:30am - - - - - NW 13 17 7 9 - - -
01/04:00am - - - - - NW 15 17 8 9 - - -
01/03:30am - - - - - NW 17 19 9 10 - - -
01/03:00am - - - - - NW 17 19 9 10 - - -
01/02:30am - - - - - NNW 17 22 9 12 - - -
01/02:00am - - - - - NNW 15 19 8 10 - - -
01/01:30am - - - - - NW 15 17 8 9 - - -
01/01:00am - - - - - N 26 32 14 17 - - -
01/12:30am - - - - - N 28 35 15 19 - - -
01/12:00am - - - - - N 28 32 15 17 - - -
 
Date/Time
EST
Temp
°C
App
Temp
°C
Dew
Point
°C
Rel
Hum
%
Delta-T
°C
Wind Press
QNH
hPa
Press
MSL
hPa
Rain since
9am
mm
Dir  Spd
km/h
Gust
km/h
Spd
kts
Gust
kts
30/11:30pm - - - - - N 28 33 15 18 - - -
30/11:00pm - - - - - NNE 22 32 12 17 - - -
30/10:30pm - - - - - NE 20 22 11 12 - - -
30/10:00pm - - - - - NE 20 22 11 12 - - -
30/09:30pm - - - - - NE 20 22 11 12 - - -
30/09:00pm - - - - - NNE 24 28 13 15 - - -
30/08:30pm - - - - - NNE 17 24 9 13 - - -
30/08:00pm - - - - - NNE 19 22 10 12 - - -
30/07:30pm - - - - - NNE 17 22 9 12 - - -
30/07:00pm - - - - - NNE 17 20 9 11 - - -
30/06:30pm - - - - - NNE 20 22 11 12 - - -
30/06:00pm - - - - - NNE 22 26 12 14 - - -
30/05:30pm - - - - - NE 22 28 12 15 - - -
30/05:00pm - - - - - NNE 20 24 11 13 - - -
30/04:30pm - - - - - NNE 20 24 11 13 - - -
30/04:00pm - - - - - NNE 24 26 13 14 - - -
30/03:30pm - - - - - NE 17 20 9 11 - - -
30/03:00pm - - - - - NE 13 17 7 9 - - -
30/02:30pm - - - - - ENE 17 19 9 10 - - -
30/02:00pm - - - - - NE 24 28 13 15 - - -
30/01:30pm - - - - - NE 19 22 10 12 - - -
30/01:00pm - - - - - NE 20 22 11 12 - - -
30/12:30pm - - - - - NNE 17 24 9 13 - - -
30/12:00pm - - - - - NE 9 19 5 10 - - -
30/11:30am - - - - - ENE 20 32 11 17 - - -
30/11:00am - - - - - E 9 13 5 7 - - -
30/10:30am - - - - - E 11 15 6 8 - - -
30/10:00am - - - - - E 13 20 7 11 - - -
30/09:30am - - - - - E 15 22 8 12 - - -
30/09:00am - - - - - E 17 22 9 12 - - -
30/08:30am - - - - - E 15 22 8 12 - - -
30/08:00am - - - - - E 15 20 8 11 - - -
30/07:30am - - - - - E 15 20 8 11 - - -
30/07:00am - - - - - E 13 17 7 9 - - -
30/06:30am - - - - - E 13 17 7 9 - - -
30/06:00am - - - - - E 11 17 6 9 - - -
30/05:30am - - - - - ESE 13 17 7 9 - - -
30/05:00am - - - - - SE 17 20 9 11 - - -
30/04:30am - - - - - ESE 17 20 9 11 - - -
30/04:00am - - - - - ESE 17 22 9 12 - - -
30/03:30am - - - - - ESE 15 20 8 11 - - -
30/03:00am - - - - - SE 15 20 8 11 - - -
30/02:30am - - - - - SE 17 24 9 13 - - -
30/02:00am - - - - - SE 19 24 10 13 - - -
30/01:30am - - - - - ESE 17 22 9 12 - - -
30/01:00am - - - - - ESE 17 20 9 11 - - -
30/12:30am - - - - - ESE 15 19 8 10 - - -
30/12:00am - - - - - ESE 13 19 7 10 - - -
 
Date/Time
EST
Temp
°C
App
Temp
°C
Dew
Point
°C
Rel
Hum
%
Delta-T
°C
Wind Press
QNH
hPa
Press
MSL
hPa
Rain since
9am
mm
Dir  Spd
km/h
Gust
km/h
Spd
kts
Gust
kts
29/11:30pm - - - - - ESE 11 17 6 9 - - -
29/11:00pm - - - - - E 13 17 7 9 - - -
29/10:30pm - - - - - E 11 17 6 9 - - -
29/10:00pm - - - - - E 13 17 7 9 - - -
29/09:30pm - - - - - E 13 20 7 11 - - -
29/09:00pm - - - - - E 15 20 8 11 - - -
29/08:30pm - - - - - E 19 26 10 14 - - -
29/08:00pm - - - - - E 19 28 10 15 - - -
29/07:30pm - - - - - E 22 32 12 17 - - -
29/07:00pm - - - - - E 19 28 10 15 - - -
29/06:30pm - - - - - ESE 24 30 13 16 - - -
29/06:00pm - - - - - E 20 28 11 15 - - -
29/05:30pm - - - - - ESE 22 30 12 16 - - -
29/05:00pm - - - - - ESE 22 32 12 17 - - -
29/04:30pm - - - - - ESE 22 30 12 16 - - -
29/04:00pm - - - - - E 20 28 11 15 - - -
29/03:30pm - - - - - ESE 24 33 13 18 - - -
29/03:00pm - - - - - E 24 33 13 18 - - -
29/02:30pm - - - - - ESE 26 35 14 19 - - -
29/02:00pm - - - - - ESE 28 35 15 19 - - -
29/01:30pm - - - - - ESE 26 32 14 17 - - -
29/01:00pm - - - - - E 22 30 12 16 - - -
29/12:30pm - - - - - ESE 24 35 13 19 - - -
29/12:00pm - - - - - ESE 24 30 13 16 - - -
29/11:30am - - - - - ESE 24 32 13 17 - - -
29/11:00am - - - - - SE 24 30 13 16 - - -
29/10:30am - - - - - SE 24 33 13 18 - - -
29/10:00am - - - - - SE 22 30 12 16 - - -
29/09:30am - - - - - SSE 24 30 13 16 - - -
29/09:00am - - - - - SSE 26 32 14 17 - - -
29/08:30am - - - - - SSE 24 28 13 15 - - -
29/08:00am - - - - - S 28 32 15 17 - - -
29/07:30am - - - - - S 24 28 13 15 - - -
29/07:00am - - - - - S 24 30 13 16 - - -
29/06:30am - - - - - S 22 26 12 14 - - -
29/06:00am - - - - - S 22 28 12 15 - - -
29/05:30am - - - - - SSE 24 28 13 15 - - -
29/05:00am - - - - - SSE 26 30 14 16 - - -
29/04:30am - - - - - SSE 24 28 13 15 - - -
29/04:00am - - - - - S 20 26 11 14 - - -
29/03:30am - - - - - S 22 26 12 14 - - -
29/03:00am - - - - - S 26 30 14 16 - - -
29/02:30am - - - - - S 24 30 13 16 - - -
29/02:00am - - - - - S 24 26 13 14 - - -
29/01:30am - - - - - S 24 28 13 15 - - -
29/01:00am - - - - - SSE 20 26 11 14 - - -
29/12:30am - - - - - SE 24 30 13 16 - - -
29/12:00am - - - - - SE 24 33 13 18 - - -
 
Date/Time
EST
Temp
°C
App
Temp
°C
Dew
Point
°C
Rel
Hum
%
Delta-T
°C
Wind Press
QNH
hPa
Press
MSL
hPa
Rain since
9am
mm
Dir  Spd
km/h
Gust
km/h
Spd
kts
Gust
kts
28/11:30pm - - - - - SE 20 28 11 15 - - -
28/11:00pm - - - - - SE 24 30 13 16 - - -
28/10:30pm - - - - - ESE 26 33 14 18 - - -
28/10:00pm - - - - - SE 26 33 14 18 - - -
28/09:30pm - - - - - SE 24 30 13 16 - - -
28/09:00pm - - - - - SE 26 35 14 19 - - -
28/08:30pm - - - - - SE 28 33 15 18 - - -
28/08:00pm - - - - - ESE 32 37 17 20 - - -
28/07:30pm - - - - - ESE 32 37 17 20 - - -
28/07:00pm - - - - - ESE 33 39 18 21 - - -
28/06:30pm - - - - - ESE 35 43 19 23 - - -
28/06:00pm - - - - - ESE 33 43 18 23 - - -
28/05:30pm - - - - - ESE 32 39 17 21 - - -
28/05:00pm - - - - - ESE 30 35 16 19 - - -
28/04:30pm - - - - - ESE 32 37 17 20 - - -
28/04:00pm - - - - - ESE 30 35 16 19 - - -
28/03:30pm - - - - - ESE 26 33 14 18 - - -
28/03:00pm - - - - - E 22 33 12 18 - - -

Other formats

Comma delimited format used in spreadsheet applications
http://www.bom.gov.au/fwo/IDQ60801/IDQ60801.94590.axf

JavaScript Object Notation format (JSON) in row-major order
http://www.bom.gov.au/fwo/IDQ60801/IDQ60801.94590.json

Data quality

Most of these data are generated automatically and are frequently updated. Quality checks on data are not normally performed. It is possible for incorrect values to appear. Refer to information at About Latest Weather Observations and please check the disclaimer before using these data.